Sahovskaja, Russia
Current Conditions -  °F | °C
As of 8:30 AM on Tuesday 21 Oct 2014 (Local Time) from UUBW Reporting Station
Haze Haze  
Wind Chill: 32°   Ceiling: 400
Heat Index: 36°   Visibility: 1.3mi
Dew Point: 34°   Wind: 4mph
Humidity: 93%   Direction: NA
Pressure: 29.32"   Gusts: NA
Location:  56.03°N, 35.52°E
Report Text: UUBW 210530Z VRB02MPS 2200 BR OVC004 02/01 Q0993 TEMPO 0500 DZFG OVC002 RMK QBB120
Loading
Personal Weather Stations






























Interactive Weather Map
Tropical Storm Tracking
New forecast layout! Learn more

10-Day Weather Forecast

Advertisements
Track Severe Weather on mobile